Ales Holes

Chefscout - Slovan Liberec
19 Aug 2027
Donnerstag
Verarbeitung

Persönlichkeit

Anpassungsfähigkeit (17) Ehrgeiz (19) Kontroverse (15) Loyalität (18) Druck (16) Professionalität (10) Fairness (6) Temperament (14)

Profil

Trainerstil Demokratisch
Lizenz Kontinentale B
Entschlossenheit 12
Menschenführung 5
Motivation 5
Disziplin 9
Arbeitszufriedenheit
62%
Ermüdung
0%
Rolle Chefscout
Gehalt 42.4K p/W
Vertrag 14.03.2029

Leistung

Verhalten Gut
Trainingseffektivität
22%
Spielerentwicklung
20%
Verletzungsprävention
20%
Taktische Umsetzung
50%

Letzte Ereignisse

Nahm an einer Scouting-Besprechung teil jetzt
Nahm an einer Scouting-Besprechung teil jetzt
Nahm an einer Scouting-Besprechung teil jetzt
Empfahl ein Transferziel jetzt
Empfahl ein Transferziel 7T her
Empfahl ein Transferziel 7T her
Spieler begutachtet 7T her
Spiel beobachtet 7T her

Aktuell beobachtet

133
Spieler Verein Status Fähigkeit Vertrauen Beobachtet Zuletzt beobachtet Letzte Stimme
Musa Malik Ikorodu City Aktiv 80 / 102 40% 1 13.08.2027 -
Ishmael Addo Heart of Lions Aktiv 89 / 104 40% 1 13.08.2027 -
Jayden Addai Como Aktiv 134 / 137 40% 1 13.08.2027 -
Thulani Erasmus Platinum Stars Aktiv 114 / 109 40% 2 05.07.2027 -
Hazeem Bakre Crawley Town Aktiv 90 / 90 40% 2 05.07.2027 -
Ezekiel Kwame Alladoh Philadelphia Union Aktiv 115 / 133 40% 1 05.07.2027 -
Bradley Phiri LNZ Verhandlung 112 / 112 66% 1 01.06.2027 Befürworten
Khama Dolly Utrecht Aktiv 123 / 124 67% 1 01.06.2027 Befürworten
Razvan Mitrita San Diego Football Club Aktiv 118 / 120 66% 1 01.06.2027 Befürworten
Juan Bezerra BK Hacken Verhandlung 117 / 121 66% 1 01.06.2027 -
Joe Gelhardt Hull City Aktiv 136 / 134 40% 2 31.05.2027 -
George Hirst Stoke City Aktiv 142 / 136 40% 2 31.05.2027 -
Lorent Tolaj Plymouth Argyle Aktiv 124 / 125 40% 1 31.05.2027 -
Michael Noumon Heart of Lions Aktiv 70 / 91 40% 3 30.05.2027 -
Luke Baartman ES Mostaganem Aktiv 100 / 122 40% 3 30.05.2027 -
Chinonso Chibueze Harrogate Town Aktiv 74 / 83 40% 2 30.05.2027 -
Ben Ahmed Kohili Paradou Aktiv 115 / 118 40% 2 29.05.2027 -
Federico Serra Arezzo Aktiv 85 / 89 40% 2 29.05.2027 -
Adama Goïta Remo Stars Aktiv 88 / 109 40% 1 29.05.2027 -
Leo Castledine Middlesbrough Aktiv 128 / 136 40% 4 23.05.2027 -
Víctor Guzmán Sporting CP Aktiv 96 / 100 40% 3 23.05.2027 -
Fletcher Holman Swindon Town Aktiv 91 / 96 40% 1 20.05.2027 -
Mateus Mané Manchester United Aktiv 129 / 145 40% 1 17.05.2027 Mehr Infos nötig
Iwan Morgan Grimsby Town Aktiv 107 / 118 40% 1 15.05.2027 -
Rayan Bournemouth Aktiv 130 / 143 40% 3 13.05.2027 -
Tiziano Dornell Danubio Aktiv 114 / 123 40% 1 13.05.2027 -
Gustavo Ferreira Benfica Aktiv 83 / 94 40% 1 10.05.2027 -
Borna Knezović Casarano Aktiv 102 / 103 40% 1 10.05.2027 -
Amaury Morales Pumas UNAM Aktiv 116 / 123 40% 1 07.05.2027 -
Baba N'Diaye Chelyabinsk Aktiv 79 / 92 40% 1 05.05.2027 -
Matvii Ponomarenko Dynamo Kyiv Aktiv 118 / 129 40% 1 03.05.2027 -
Ebrima Singhateh Jablonec Aktiv 109 / 118 40% 7 27.01.2027 -
Will Lankshear Middlesbrough Aktiv 125 / 125 40% 1 27.01.2027 -
Mandla Mahlangu Ajax Cape Town Aktiv 107 / 112 40% 5 11.01.2027 -
Luis Vázquez Birmingham Aktiv 131 / 127 40% 3 11.01.2027 -
Evidence Makgopa Orlando Pirates Aktiv 105 / 107 40% 4 30.12.2026 -
Tom Cannon Sheffield United Aktiv 122 / 133 40% 1 30.12.2026 Mehr Infos nötig
Cameron Archer Southampton Aktiv 121 / 121 40% 1 29.12.2026 -
Mohamed-Ali Cho Hull City Aktiv 139 / 141 40% 1 28.12.2026 -
Ilyas Ansah Hull City Aktiv 134 / 132 40% 1 26.12.2026 -
Matěj Mikulenka Sigma Olomouc Aktiv 113 / 110 40% 1 25.12.2026 -
Etiosa Ighodaro Kaizer Chiefs Aktiv 109 / 120 40% 3 24.12.2026 -
Kwame Opoku Asante Kotoko Aktiv 103 / 88 40% 2 24.12.2026 -
Ruben van Bommel Ferencvaros Aktiv 135 / 135 40% 6 23.12.2026 -
Richard Koné Queens Park Rangers Aktiv 125 / 119 40% 1 23.12.2026 -
Aune Heggebø West Bromwich Albion Aktiv 122 / 131 40% 1 22.12.2026 -
Bienvenue Kanakimana Zbrojovka Brno Aktiv 118 / 119 40% 4 20.12.2026 -
Yaroslav Gladyshev Dinamo Moscow Aktiv 115 / 120 40% 1 19.12.2026 -
Baboucarr Faal Viktoria Plzen Aktiv 110 / 114 40% 1 18.12.2026 -
Robert Mizo Ashanti Gold Aktiv 107 / 97 40% 2 16.12.2026 -
Tomáš Zlatohlávek Teplice Aktiv 111 / 110 40% 1 16.12.2026 -
José Martínes CSKA 1948 Aktiv 106 / 108 40% 1 15.12.2026 -
Juergen Elitím Bohemians 1905 Aktiv 122 / 118 40% 1 15.12.2026 -
Sayfallah Ltaief Cracovia Aktiv 124 / 119 40% 1 15.12.2026 Mehr Infos nötig
Ola Brynhildsen Bodo/Glimt Aktiv 138 / 116 40% 3 11.12.2026 -
Mattia Felici Cagliari Aktiv 129 / 124 40% 1 11.12.2026 -
Brayan León Mamelodi Sundowns Aktiv 107 / 118 40% 4 10.12.2026 -
Jacques Siwe Rubin Aktiv 116 / 117 40% 2 10.12.2026 -
Reda Khadra Qarabag Aktiv 131 / 121 40% 2 09.12.2026 -
Jiří Boula Banik Ostrava Aktiv 120 / 118 40% 3 09.12.2026 -
Albert Rusnak FK Senica Aktiv 91 / 92 40% 1 09.12.2026 -
Pablo Rodríguez Lech Aktiv 131 / 122 40% 1 07.12.2026 -
Leandro Godoy CSKA Sofia Aktiv 115 / 125 40% 1 07.12.2026 -
Themba Ngcobo SuperSport United Aktiv 119 / 120 40% 6 06.12.2026 Beobachten
Václav Drchal Bohemians 1905 Aktiv 114 / 116 40% 3 05.12.2026 -
Ammar Ramadan DAC Dunajska Streda Aktiv 121 / 117 40% 4 01.12.2026 -
Petar Stanić Ludogorets Aktiv 137 / 136 40% 2 01.12.2026 -
Williams Manyama SuperSport United Aktiv 113 / 118 40% 1 01.12.2026 -
Joaquín Gho Argentinos Juniors Aktiv 129 / 126 40% 2 30.11.2026 -
Mandla Erasmus SuperSport United Aktiv 118 / 126 40% 1 30.11.2026 -
Rafael Navarro St. Louis CITY SC Aktiv 119 / 122 40% 2 28.11.2026 -
Daniel Karlsbakk Sarpsborg 08 Aktiv 119 / 123 40% 1 28.11.2026 -
Tio Cipot NK Maribor Aktiv 122 / 125 40% 2 27.11.2026 -
Matyáš Kozák Teplice Aktiv 117 / 114 40% 2 27.11.2026 -
Mojmír Chytil NK Maribor Aktiv 141 / 128 40% 1 27.11.2026 -
Christian Krasnodar Aktiv 137 / 137 40% 1 27.11.2026 -
Bénie Traoré New York City Aktiv 120 / 125 40% 3 24.11.2026 -
Lukáš Vorlický Slovacko Aktiv 107 / 120 40% 1 24.11.2026 -
Jakub Kadák Dukla Prague Aktiv 123 / 120 40% 2 17.11.2026 -
Everton Bala Levski Aktiv 135 / 128 40% 2 17.11.2026 -
David Miculescu FCSB Aktiv 128 / 117 40% 1 17.11.2026 -
Itumeleng Mothiba Black Aces Aktiv 105 / 100 40% 1 17.11.2026 -
Merchas Doski Viktoria Plzen Aktiv 125 / 116 40% 1 14.11.2026 -
Angelo Gattermayer Wolfsberger AC Aktiv 120 / 118 40% 1 14.11.2026 -
David Ankeye Zeleznicar Pancevo Aktiv 111 / 111 40% 1 13.11.2026 -
Razvan Balasa Crvena Zvezda Aktiv 154 / 141 40% 1 13.11.2026 -
Ştefan Baiaram Universitatea Craiova Aktiv 121 / 123 40% 1 08.11.2026 -
Wessam Abou Ali Columbus Crew Aktiv 120 / 126 40% 1 05.11.2026 -
Santiago Rodríguez Columbus Crew Aktiv 118 / 127 40% 1 05.11.2026 -
Abubakar Ghali Sigma Olomouc Aktiv 118 / 116 40% 1 05.11.2026 -
Reuell Walters Luton Town Aktiv 111 / 120 40% 1 04.11.2026 -
Enzo Avaro Odd Aktiv 119 / 114 40% 1 02.11.2026 -
Lukáš Červ Viktoria Plzen Aktiv 125 / 131 40% 2 29.10.2026 -
Bamba Dieng Crvena Zvezda Aktiv 128 / 131 40% 2 29.10.2026 -
Kévin Denkey FC Cincinnati Aktiv 138 / 137 40% 1 29.10.2026 -
Tomás González Piast Aktiv 107 / 111 40% 2 27.10.2026 -
Michele Šego Hajduk Split Aktiv 124 / 113 40% 1 27.10.2026 -
Tadeo Allende Inter Miami CF Aktiv 115 / 120 40% 2 26.10.2026 -
Alan Marinelli Sparta Prague Aktiv 113 / 112 40% 1 26.10.2026 -
Tshepang Moremi Orlando Pirates Aktiv 119 / 105 40% 1 25.10.2026 -
Leonardo Campana New England Revolution Aktiv 119 / 124 40% 2 23.10.2026 -
Mduduzi Shabalala Kaizer Chiefs Aktiv 105 / 123 40% 1 21.10.2026 -
Bryan Ramírez FC Cincinnati Aktiv 133 / 126 40% 1 20.10.2026 -
Martín Ojeda Orlando City Aktiv 135 / 123 40% 1 18.10.2026 -
Armindo Sieb Los Angeles Football Club Aktiv 107 / 124 40% 2 17.10.2026 -
Dejan Joveljić Seattle Sounders Aktiv 126 / 132 40% 1 16.10.2026 -
Theo Corbeanu Toronto FC Aktiv 110 / 119 40% 1 16.10.2026 -
Facundo Mura Inter Miami CF Aktiv 133 / 125 40% 1 16.10.2026 -
Michal Kohút Banik Ostrava Aktiv 135 / 132 40% 1 16.10.2026 -
Michal Sadílek Slavia Prague Aktiv 128 / 133 40% 1 16.10.2026 -
Cheikh Sabaly Vancouver Whitecaps Aktiv 122 / 133 40% 2 14.10.2026 -
Louis Munteanu DC United Aktiv 138 / 116 40% 1 14.10.2026 -
Iván Angulo Orlando City Aktiv 136 / 124 40% 1 14.10.2026 -
Marcelo Allende Mamelodi Sundowns Aktiv 127 / 120 40% 1 13.10.2026 -
Peter Christiansen Viking Aktiv 129 / 111 40% 1 12.10.2026 -
Andy Irving Sparta Prague Aktiv 132 / 120 40% 1 10.10.2026 -
Kevin Kelsy Portland Timbers Aktiv 114 / 122 40% 1 08.10.2026 -
Nazar Voloshyn Dynamo Kyiv Aktiv 123 / 127 40% 1 08.10.2026 -
Tomás Chancalay Minnesota United FC Aktiv 114 / 132 40% 1 06.10.2026 -
Telasco Segovia Inter Miami CF Aktiv 133 / 124 40% 1 06.10.2026 -
Griffin Yow New England Revolution Aktiv 120 / 128 40% 1 06.10.2026 -
Hlompho Lorch Ajax Cape Town Aktiv 107 / 90 40% 1 10.09.2026 -
Keagan Phiri Platinum Stars Aktiv 100 / 99 40% 1 10.09.2026 -
Tim Drexler Red Bull Salzburg Aktiv 119 / 122 40% 1 01.09.2026 -
Olalekan Adeleke Remo Stars Aktiv 86 / 91 40% 1 01.09.2026 -
Matvey Kislyak CSKA Moscow Aktiv 131 / 133 40% 2 31.08.2026 -
Stanley Joseph Remo Stars Aktiv 97 / 88 40% 1 31.08.2026 -
Juan Giménez Celta Aktiv 112 / 125 40% 1 31.08.2026 -
Mbekezeli Mbokazi Chicago Fire Aktiv 120 / 130 40% 1 24.08.2026 -
Simphiwe Selepe Orlando Pirates Aktiv 101 / 107 40% 1 24.08.2026 -
Philippe Ndinga Philadelphia Union Aktiv 115 / 124 40% 1 17.08.2026 -
Nikita Stoinov Dinamo Bucharest Aktiv 127 / 131 40% 1 17.08.2026 -
Fabijan Krivak Sigma Olomouc Aktiv 105 / 117 40% 1 17.08.2026 -